Victor, New York
Current Conditions -  °F | °C
As of 3:54 PM on Thursday 20 Nov 2014 (Local Time) from KROC Reporting Station
Broken Clouds Broken Clouds  
Wind Chill: 15°   Ceiling: 6000
Heat Index: 27°   Visibility: 10mi
Dew Point: 15°   Wind: 15mph
Humidity: 61%   Direction: 260°W
Pressure: 29.86"   Gusts: NA
Location:  42.98°N, 77.41°W
Report Text: KROC 202054Z 26013KT 10SM FEW045 BKN060 BKN075 M03/M09 A2986 RMK AO2 SLP121 SHSN DSNT S-SW 60000 T10281094 53010
Loading
Personal Weather Stations






























Interactive Weather Map New forecast layout! Learn more

10-Day Weather Forecast

Advertisements
Track Severe Weather on mobile